Flight Track Log - Related Links

Times and Time Zones

All times are in EDT time to prevent confusion due to time zone crossing. See the SKW6528 flight status page for this flight to view local times or setup timezone preferences in your user account.

Time Position Orientation Groundspeed Altitude Reporting Facility
EDT Latitude Longitude Course Direction KTS MPH feet Rate Location/Type
Fri 12:27:37 PM 39.8708 -104.5564 116° Southeast 288 331 9,400  Level Denver Center
Fri 12:28:39 PM 39.8344 -104.4603 116° Southeast 295 339 10,000 1,113 Climbing Denver Center
Fri 12:29:00 PM 39.7667 -103.9985 90° East  Level FlightAware Approximate
Fri 12:29:41 PM 39.8083 -104.3469 107° East 311 358 11,700  Level Denver Center
Fri 12:30:00 PM 39.7500 -103.8334 90° East  Level FlightAware Approximate
Fri 12:30:43 PM 39.7958 -104.2253 98° East 339 390 13,400  Level Denver Center
Fri 12:31:00 PM 39.7333 -103.6674 90° East  Level FlightAware Approximate
Fri 12:31:45 PM 39.7806 -104.0917 98° East 375 432 15,100  Level Denver Center
Fri 12:32:00 PM 39.7177 -103.4995 99° East  Level FlightAware Approximate
Fri 12:32:47 PM 39.7681 -103.9736 98° East 388 447 16,400  Level Denver Center
Fri 12:33:49 PM 39.7475 -103.7950 98° East 406 467 18,400 1,824 Climbing Denver Center
Fri 12:34:52 PM 39.7336 -103.6514 97° East 388 447 20,200 1,632 Climbing Denver Center
Fri 12:35:54 PM 39.7211 -103.5008 96° East 411 473 21,800 1,500 Climbing Denver Center
Fri 12:36:56 PM 39.7100 -103.3508 95° East 413 475 23,300 1,452 Climbing Denver Center
Fri 12:37:58 PM 39.6972 -103.1989 96° East 418 481 24,800 1,210 Climbing Denver Center
Fri 12:39:00 PM 39.6675 -103.0211 102° East 433 498 25,800 706 Climbing Denver Center
Fri 12:40:14 PM 39.6300 -102.8342 105° East 452 520 26,400 485 Climbing Denver Center
Fri 12:41:16 PM 39.5953 -102.6694 105° East 467 537 26,900 629 Climbing Denver Center
Fri 12:42:18 PM 39.5608 -102.5028 105° East 475 547 27,700 726 Climbing Denver Center
Fri 12:43:20 PM 39.5247 -102.3306 105° East 474 545 28,400 774 Climbing Denver Center
Fri 12:44:22 PM 39.4861 -102.1461 105° East 475 547 29,300 863 Climbing Denver Center
Fri 12:45:53 PM 39.4375 -101.9158 105° East 470 541 30,600 919 Climbing Kansas City Center
Fri 12:46:26 PM 39.4147 -101.8106 106° East 466 536 31,200 821 Climbing Denver Center
Fri 12:47:28 PM 39.3867 -101.6856 106° East 458 527 31,900 720 Climbing Denver Center
Fri 12:48:31 PM 39.3442 -101.4856 105° East 454 522 32,700 528 Climbing Denver Center
Fri 12:49:33 PM 39.3106 -101.3353 106° East 457 526 33,000 145 Climbing Denver Center
Fri 12:50:35 PM 39.2719 -101.1550 105° East 466 536 33,000  Level Denver Center
Fri 12:51:37 PM 39.2364 -100.9978 106° East 474 545 33,000  Level Denver Center
Fri 12:52:39 PM 39.2008 -100.8367 106° East 484 557 33,000  Level Denver Center
Fri 12:53:41 PM 39.1569 -100.6458 106° East 493 567 33,000  Level Denver Center
Fri 12:54:43 PM 39.1194 -100.4814 106° East 499 574 33,000  Level Denver Center
Fri 12:55:45 PM 39.0744 -100.2847 106° East 509 586 33,000  Level Denver Center
Fri 12:56:47 PM 39.0361 -100.1186 106° East 509 586 33,000  Level Denver Center
Fri 12:57:49 PM 38.9908 -99.9203 106° East 509 586 33,000  Level Denver Center
Fri 12:58:51 PM 38.9517 -99.7533 107° East 509 586 33,000  Level Denver Center
Fri 12:59:53 PM 38.9067 -99.5600 107° East 506 582 33,000  Level Denver Center
Fri 01:00:55 PM 38.8669 -99.3922 107° East 510 587 33,000  Level Denver Center
Fri 01:01:28 PM 38.8461 -99.3094 108° East 509 586 33,000  Level Kansas City Center
Fri 01:02:32 PM 38.8047 -99.1356 107° East 508 585 33,000  Level Kansas City Center
Fri 01:03:33 PM 38.7625 -98.9622 107° East 509 586 33,000  Level Kansas City Center
Fri 01:04:34 PM 38.7122 -98.7556 107° East 506 582 33,000  Level Kansas City Center
Fri 01:05:37 PM 38.6700 -98.5836 107° East 507 583 33,000  Level Kansas City Center
Fri 01:06:39 PM 38.6269 -98.4103 108° East 509 586 33,000  Level Kansas City Center
Fri 01:07:39 PM 38.5847 -98.2381 107° East 507 583 33,000  Level Kansas City Center
Fri 01:08:44 PM 38.5403 -98.0653 108° East 508 585 33,000  Level Kansas City Center
Fri 01:09:44 PM 38.4967 -97.8925 108° East 509 586 33,000  Level Kansas City Center
Fri 01:10:46 PM 38.4522 -97.7192 108° East 510 587 33,000  Level Kansas City Center
Fri 01:11:49 PM 38.4075 -97.5422 108° East 510 587 33,000  Level Kansas City Center
Fri 01:12:50 PM 38.3547 -97.3383 108° East 511 588 33,000  Level Kansas City Center
Fri 01:13:54 PM 38.3094 -97.1650 108° East 513 590 33,000  Level Kansas City Center
Fri 01:14:55 PM 38.2642 -96.9917 108° East 514 592 33,000  Level Kansas City Center
Fri 01:15:55 PM 38.2183 -96.8183 109° East 516 594 33,000  Level Kansas City Center
Fri 01:17:00 PM 38.1714 -96.6447 109° East 518 596 33,000  Level Kansas City Center
Fri 01:18:00 PM 38.1250 -96.4703 109° East 520 598 33,000  Level Kansas City Center
Fri 01:19:02 PM 38.0786 -96.2967 109° East 520 598 33,000  Level Kansas City Center
Fri 01:20:05 PM 38.0269 -96.1047 109° East 519 597 33,000  Level Kansas City Center
Fri 01:21:07 PM 37.9739 -95.9114 109° East 522 601 33,000  Level Kansas City Center
Fri 01:22:07 PM 37.9308 -95.7550 109° East 525 604 33,000  Level Kansas City Center
Fri 01:23:11 PM 37.8725 -95.5483 110° East 521 600 33,000 -384 Level Kansas City Center
Fri 01:24:12 PM 37.8242 -95.3772 110° East 517 595 32,200 -1,065 Descending Kansas City Center
Fri 01:25:15 PM 37.7761 -95.2086 110° East 513 590 30,800 -1,824 Descending Kansas City Center
Fri 01:26:17 PM 37.7292 -95.0411 109° East 511 588 28,400 -2,400 Descending Kansas City Center
Fri 01:27:20 PM 37.6769 -94.8567 110° East 506 582 25,800 -2,098 Descending Kansas City Center
Fri 01:28:20 PM 37.6342 -94.7083 110° East 499 574 24,100 -871 Descending Kansas City Center
Fri 01:29:24 PM 37.5872 -94.5458 110° East 494 568 24,000 -1,632 Descending Kansas City Center
Fri 01:30:25 PM 37.5333 -94.3586 110° East 479 551 20,700 -3,000 Descending Kansas City Center
Fri 01:31:28 PM 37.4906 -94.2117 110° East 457 526 17,800 -2,565 Descending Kansas City Center
Fri 01:32:29 PM 37.4533 -94.0869 111° Southeast 440 506 15,400 -2,311 Descending Kansas City Center
Fri 01:33:30 PM 37.4081 -93.9303 110° East 409 471 13,100 -1,756 Descending Kansas City Center
Fri 01:34:32 PM 37.3628 -93.8272 119° Southeast 349 402 11,800 -1,488 Descending Kansas City Center
Fri 01:35:35 PM 37.3131 -93.7331 124° Southeast 328 377 10,000 -1,694 Descending Kansas City Center
Fri 01:36:36 PM 37.2631 -93.6392 124° Southeast 324 373 8,300 -1,632 Descending Kansas City Center
Fri 01:37:40 PM 37.2131 -93.5475 124° Southeast 321 369 6,600 -1,584 Descending Kansas City Center
Fri 01:38:41 PM 37.1664 -93.4631 125° Southeast 313 360 5,000 -1,574 Descending Kansas City Center

Login

Don't have an account? Register now (free) for customized features, flight alerts, and more!